Time,TemperatureF,DewpointF,PressureIn,WindDirection,WindDirectionDegrees,WindSpeedMPH,WindSpeedGustMPH,Humidity,HourlyPrecipIn,Conditions,Clouds,dailyrainin,SoftwareType,DateUTC
2013-04-04 00:00:00,47.1,29.5,29.85,East,90,0.0,0.0,50,0.00,,,0.00,VWS V14.01,2013-04-04 04:00:00,
2013-04-04 00:01:00,47.3,29.6,29.85,East,90,0.0,0.0,50,0.00,,,0.00,VWS V14.01,2013-04-04 04:01:00,
2013-04-04 00:06:00,47.3,29.6,29.85,East,90,0.0,0.0,50,0.00,,,0.00,VWS V14.01,2013-04-04 04:06:00,
2013-04-04 00:12:00,47.3,29.6,29.85,East,90,0.0,0.0,50,0.00,,,0.00,VWS V14.01,2013-04-04 04:12:00,
2013-04-04 00:17:00,47.3,29.6,29.85,East,90,0.0,0.0,50,0.00,,,0.00,VWS V14.01,2013-04-04 04:17:00,
2013-04-04 00:22:00,47.3,29.6,29.85,East,90,0.0,0.0,50,0.00,,,0.00,VWS V14.01,2013-04-04 04:22:00,
2013-04-04 00:27:00,47.3,30.1,29.85,East,90,0.0,0.0,51,0.00,,,0.00,VWS V14.01,2013-04-04 04:27:00,
2013-04-04 00:32:00,47.1,29.9,29.85,ESE,112,0.0,0.0,51,0.00,,,0.00,VWS V14.01,2013-04-04 04:32:00,
2013-04-04 00:38:00,46.9,29.8,29.85,ESE,112,0.0,0.0,51,0.00,,,0.00,VWS V14.01,2013-04-04 04:38:00,
2013-04-04 00:43:00,46.8,29.6,29.85,ESE,112,0.0,0.0,51,0.00,,,0.00,VWS V14.01,2013-04-04 04:43:00,
2013-04-04 00:48:00,46.8,29.6,29.85,SW,225,0.0,0.0,51,0.00,,,0.00,VWS V14.01,2013-04-04 04:48:00,
2013-04-04 00:53:00,46.6,29.4,29.82,NW,315,0.0,0.0,51,0.00,,,0.00,VWS V14.01,2013-04-04 04:53:00,
2013-04-04 00:59:00,46.6,29.4,29.82,SSW,202,0.0,0.0,51,0.00,,,0.00,VWS V14.01,2013-04-04 04:59:00,
2013-04-04 01:04:00,46.0,29.4,29.82,East,90,0.0,0.0,52,0.00,,,0.00,VWS V14.01,2013-04-04 05:04:00,
2013-04-04 01:09:00,46.2,29.6,29.85,East,90,0.0,0.0,52,0.00,,,0.00,VWS V14.01,2013-04-04 05:09:00,
2013-04-04 01:14:00,46.2,29.6,29.85,NW,315,1.6,1.6,52,0.00,,,0.00,VWS V14.01,2013-04-04 05:14:00,
2013-04-04 01:19:00,46.0,29.4,29.85,WSW,248,1.1,1.1,52,0.00,,,0.00,VWS V14.01,2013-04-04 05:19:00,
2013-04-04 01:24:00,45.9,28.8,29.85,NW,315,3.8,3.8,51,0.00,,,0.00,VWS V14.01,2013-04-04 05:24:00,
2013-04-04 01:29:00,46.0,27.5,29.85,West,270,2.7,2.7,48,0.00,,,0.00,VWS V14.01,2013-04-04 05:29:00,
2013-04-04 01:34:00,45.9,26.8,29.85,NNW,338,4.3,4.3,47,0.00,,,0.00,VWS V14.01,2013-04-04 05:34:00,
2013-04-04 01:40:00,45.9,26.3,29.85,West,270,2.2,5.6,46,0.00,,,0.00,VWS V14.01,2013-04-04 05:40:00,
2013-04-04 01:45:00,45.9,25.7,29.85,ENE,68,2.9,3.4,45,0.00,,,0.00,VWS V14.01,2013-04-04 05:45:00,
2013-04-04 01:50:00,45.5,24.9,29.85,North,0,1.6,1.6,44,0.00,,,0.00,VWS V14.01,2013-04-04 05:50:00,
2013-04-04 01:55:00,45.5,24.9,29.85,NE,45,6.0,6.0,44,0.00,,,0.00,VWS V14.01,2013-04-04 05:55:00,
2013-04-04 02:01:00,45.3,24.2,29.85,NW,315,2.5,2.5,43,0.00,,,0.00,VWS V14.01,2013-04-04 06:01:00,
2013-04-04 02:06:00,45.3,24.2,29.85,NNE,22,5.4,5.4,43,0.00,,,0.00,VWS V14.01,2013-04-04 06:06:00,
2013-04-04 02:11:00,45.1,24.0,29.85,WNW,292,2.9,3.1,43,0.00,,,0.00,VWS V14.01,2013-04-04 06:11:00,
2013-04-04 02:17:00,45.1,23.4,29.85,NNW,338,1.3,1.6,42,0.00,,,0.00,VWS V14.01,2013-04-04 06:17:00,
2013-04-04 02:22:00,45.0,23.3,29.85,NW,315,1.1,2.5,42,0.00,,,0.00,VWS V14.01,2013-04-04 06:22:00,
2013-04-04 02:27:00,44.8,23.1,29.85,NW,315,2.7,2.7,42,0.00,,,0.00,VWS V14.01,2013-04-04 06:27:00,
2013-04-04 02:32:00,44.8,23.1,29.85,NNW,338,2.9,2.9,42,0.00,,,0.00,VWS V14.01,2013-04-04 06:32:00,
2013-04-04 02:38:00,44.6,22.9,29.85,SSW,202,1.6,3.1,42,0.00,,,0.00,VWS V14.01,2013-04-04 06:38:00,
2013-04-04 02:43:00,44.6,22.9,29.85,NW,315,1.1,1.1,42,0.00,,,0.00,VWS V14.01,2013-04-04 06:43:00,
2013-04-04 02:48:00,44.6,22.4,29.85,WSW,248,0.9,2.9,41,0.00,,,0.00,VWS V14.01,2013-04-04 06:48:00,
2013-04-04 02:53:00,44.2,22.6,29.85,WNW,292,3.1,3.1,42,0.00,,,0.00,VWS V14.01,2013-04-04 06:53:00,
2013-04-04 02:58:00,44.2,22.6,29.85,WSW,248,1.1,1.1,42,0.00,,,0.00,VWS V14.01,2013-04-04 06:58:00,
2013-04-04 03:04:00,44.2,22.6,29.85,SW,225,1.6,1.6,42,0.00,,,0.00,VWS V14.01,2013-04-04 07:04:00,
2013-04-04 03:09:00,44.1,22.5,29.85,NNW,338,3.1,3.1,42,0.00,,,0.00,VWS V14.01,2013-04-04 07:09:00,
2013-04-04 03:14:00,44.1,22.5,29.85,NW,315,2.0,2.0,42,0.00,,,0.00,VWS V14.01,2013-04-04 07:14:00,
2013-04-04 03:19:00,44.1,22.5,29.85,NNW,338,1.1,1.1,42,0.00,,,0.00,VWS V14.01,2013-04-04 07:19:00,
2013-04-04 03:25:00,43.9,22.3,29.85,NNW,338,4.3,4.3,42,0.00,,,0.00,VWS V14.01,2013-04-04 07:25:00,
2013-04-04 03:30:00,43.9,22.9,29.85,WNW,292,3.1,3.1,43,0.00,,,0.00,VWS V14.01,2013-04-04 07:30:00,
2013-04-04 03:35:00,43.9,22.9,29.85,NW,315,3.4,3.4,43,0.00,,,0.00,VWS V14.01,2013-04-04 07:35:00,
2013-04-04 03:40:00,43.9,22.9,29.85,North,0,1.3,2.0,43,0.00,,,0.00,VWS V14.01,2013-04-04 07:40:00,
2013-04-04 03:45:00,44.1,23.0,29.85,North,0,2.9,2.9,43,0.00,,,0.00,VWS V14.01,2013-04-04 07:45:00,
2013-04-04 03:50:00,43.7,22.7,29.85,NW,315,2.7,2.7,43,0.00,,,0.00,VWS V14.01,2013-04-04 07:50:00,
2013-04-04 03:55:00,43.5,23.1,29.85,NW,315,3.6,3.6,44,0.00,,,0.00,VWS V14.01,2013-04-04 07:55:00,
2013-04-04 04:01:00,43.7,23.2,29.85,West,270,2.2,3.4,44,0.00,,,0.00,VWS V14.01,2013-04-04 08:01:00,
2013-04-04 04:06:00,43.7,23.8,29.85,WNW,292,2.5,2.5,45,0.00,,,0.00,VWS V14.01,2013-04-04 08:06:00,
2013-04-04 04:11:00,43.7,23.8,29.85,ESE,112,2.9,2.9,45,0.00,,,0.00,VWS V14.01,2013-04-04 08:11:00,
2013-04-04 04:17:00,43.5,24.1,29.85,SW,225,2.5,3.6,46,0.00,,,0.00,VWS V14.01,2013-04-04 08:17:00,
2013-04-04 04:22:00,43.5,24.1,29.85,WNW,292,0.0,3.1,46,0.00,,,0.00,VWS V14.01,2013-04-04 08:22:00,
2013-04-04 04:27:00,43.5,24.1,29.85,West,270,2.9,2.9,46,0.00,,,0.00,VWS V14.01,2013-04-04 08:27:00,
2013-04-04 04:32:00,43.5,24.1,29.85,West,270,2.9,3.4,46,0.00,,,0.00,VWS V14.01,2013-04-04 08:32:00,
2013-04-04 04:37:00,43.5,24.6,29.85,NW,315,0.0,0.0,47,0.00,,,0.00,VWS V14.01,2013-04-04 08:37:00,
2013-04-04 04:42:00,43.7,24.8,29.85,WNW,292,2.0,2.0,47,0.00,,,0.00,VWS V14.01,2013-04-04 08:42:00,
2013-04-04 04:47:00,43.5,25.1,29.88,North,0,1.3,1.3,48,0.00,,,0.00,VWS V14.01,2013-04-04 08:47:00,
2013-04-04 04:53:00,43.5,25.1,29.88,NNW,338,2.5,2.5,48,0.00,,,0.00,VWS V14.01,2013-04-04 08:53:00,
2013-04-04 04:58:00,43.5,24.6,29.88,NNW,338,2.9,2.9,47,0.00,,,0.00,VWS V14.01,2013-04-04 08:58:00,
2013-04-04 05:03:00,43.5,25.1,29.88,WSW,248,1.6,1.6,48,0.00,,,0.00,VWS V14.01,2013-04-04 09:03:00,
2013-04-04 05:08:00,43.5,25.1,29.88,NNW,338,3.1,5.4,48,0.00,,,0.00,VWS V14.01,2013-04-04 09:08:00,
2013-04-04 05:14:00,43.5,25.1,29.88,NNW,338,4.0,4.0,48,0.00,,,0.00,VWS V14.01,2013-04-04 09:14:00,
2013-04-04 05:19:00,43.3,25.0,29.88,NNE,22,1.1,1.1,48,0.00,,,0.00,VWS V14.01,2013-04-04 09:19:00,
2013-04-04 05:25:00,43.3,25.0,29.88,WNW,292,3.8,3.8,48,0.00,,,0.00,VWS V14.01,2013-04-04 09:25:00,
2013-04-04 05:30:00,43.5,25.1,29.88,NW,315,3.4,3.4,48,0.00,,,0.00,VWS V14.01,2013-04-04 09:30:00,
2013-04-04 05:35:00,43.3,25.0,29.88,NNW,338,0.0,0.0,48,0.00,,,0.00,VWS V14.01,2013-04-04 09:35:00,
2013-04-04 05:40:00,43.0,24.6,29.88,WNW,292,3.6,3.6,48,0.00,,,0.00,VWS V14.01,2013-04-04 09:40:00,
2013-04-04 05:45:00,43.0,24.6,29.88,WNW,292,5.8,5.8,48,0.00,,,0.00,VWS V14.01,2013-04-04 09:45:00,
2013-04-04 05:50:00,42.8,24.5,29.88,NNW,338,3.1,3.1,48,0.00,,,0.00,VWS V14.01,2013-04-04 09:50:00,
2013-04-04 05:55:00,42.8,24.5,29.88,NNW,338,1.3,1.6,48,0.00,,,0.00,VWS V14.01,2013-04-04 09:55:00,
2013-04-04 06:01:00,42.6,24.3,29.88,North,0,3.1,3.1,48,0.00,,,0.00,VWS V14.01,2013-04-04 10:01:00,
2013-04-04 06:06:00,42.6,24.8,29.88,NW,315,4.9,4.9,49,0.00,,,0.00,VWS V14.01,2013-04-04 10:06:00,
2013-04-04 06:11:00,42.4,24.6,29.85,North,0,0.0,0.0,49,0.00,,,0.00,VWS V14.01,2013-04-04 10:11:00,
2013-04-04 06:16:00,42.3,24.5,29.85,North,0,0.0,0.0,49,0.00,,,0.00,VWS V14.01,2013-04-04 10:16:00,
2013-04-04 06:22:00,42.3,24.5,29.85,NW,315,0.9,2.2,49,0.00,,,0.00,VWS V14.01,2013-04-04 10:22:00,
2013-04-04 06:27:00,42.3,24.5,29.88,NNW,338,3.4,3.4,49,0.00,,,0.00,VWS V14.01,2013-04-04 10:27:00,
2013-04-04 06:32:00,42.1,24.3,29.88,NNW,338,1.3,1.3,49,0.00,,,0.00,VWS V14.01,2013-04-04 10:32:00,
2013-04-04 06:37:00,42.1,24.3,29.88,NNW,338,4.3,4.3,49,0.00,,,0.00,VWS V14.01,2013-04-04 10:37:00,
2013-04-04 06:42:00,41.9,24.1,29.88,NNW,338,2.9,2.9,49,0.00,,,0.00,VWS V14.01,2013-04-04 10:42:00,
2013-04-04 06:47:00,41.7,24.0,29.88,NNE,22,3.6,3.6,49,0.00,,,0.00,VWS V14.01,2013-04-04 10:47:00,
2013-04-04 06:52:00,41.5,23.8,29.88,NNW,338,2.2,3.8,49,0.00,,,0.00,VWS V14.01,2013-04-04 10:52:00,
2013-04-04 06:58:00,41.5,23.8,29.88,NW,315,2.0,2.0,49,0.00,,,0.00,VWS V14.01,2013-04-04 10:58:00,
2013-04-04 07:03:00,41.5,23.3,29.88,NE,45,2.7,4.0,48,0.00,,,0.00,VWS V14.01,2013-04-04 11:03:00,
2013-04-04 07:08:00,41.4,23.2,29.88,West,270,2.9,2.9,48,0.00,,,0.00,VWS V14.01,2013-04-04 11:08:00,
2013-04-04 07:13:00,41.4,23.2,29.88,NNE,22,5.4,5.4,48,0.00,,,0.00,VWS V14.01,2013-04-04 11:13:00,
2013-04-04 07:18:00,41.2,23.0,29.88,NNW,338,2.7,3.4,48,0.00,,,0.00,VWS V14.01,2013-04-04 11:18:00,
2013-04-04 07:24:00,41.2,23.0,29.91,NW,315,0.0,1.3,48,0.00,,,0.00,VWS V14.01,2013-04-04 11:24:00,
2013-04-04 07:29:00,41.2,23.0,29.91,NW,315,2.9,2.9,48,0.00,,,0.00,VWS V14.01,2013-04-04 11:29:00,
2013-04-04 07:34:00,41.2,23.0,29.91,NNW,338,2.9,2.9,48,0.00,,,0.00,VWS V14.01,2013-04-04 11:34:00,
2013-04-04 07:39:00,41.2,23.5,29.91,NNE,22,0.0,1.3,49,0.00,,,0.00,VWS V14.01,2013-04-04 11:39:00,
2013-04-04 07:44:00,41.2,23.0,29.91,NW,315,3.4,3.4,48,0.00,,,0.00,VWS V14.01,2013-04-04 11:44:00,
2013-04-04 07:49:00,41.5,23.3,29.91,NW,315,3.6,3.6,48,0.00,,,0.00,VWS V14.01,2013-04-04 11:49:00,
2013-04-04 07:54:00,41.5,23.3,29.91,WNW,292,4.0,4.0,48,0.00,,,0.00,VWS V14.01,2013-04-04 11:54:00,
2013-04-04 07:59:00,41.7,23.5,29.91,SSW,202,3.4,3.4,48,0.00,,,0.00,VWS V14.01,2013-04-04 11:59:00,
2013-04-04 08:05:00,41.7,23.5,29.91,NW,315,2.2,2.2,48,0.00,,,0.00,VWS V14.01,2013-04-04 12:05:00,
2013-04-04 08:10:00,41.9,23.7,29.91,NW,315,3.1,3.1,48,0.00,,,0.00,VWS V14.01,2013-04-04 12:10:00,
2013-04-04 08:15:00,42.3,24.0,29.91,NE,45,1.6,1.6,48,0.00,,,0.00,VWS V14.01,2013-04-04 12:15:00,
2013-04-04 08:21:00,42.3,24.0,29.91,NW,315,3.1,3.1,48,0.00,,,0.00,VWS V14.01,2013-04-04 12:21:00,
2013-04-04 08:27:00,42.3,24.0,29.91,NNW,338,1.1,2.7,48,0.00,,,0.00,VWS V14.01,2013-04-04 12:27:00,
2013-04-04 08:32:00,43.9,25.0,29.91,NE,45,2.0,2.0,47,0.00,,,0.00,VWS V14.01,2013-04-04 12:32:00,
2013-04-04 08:37:00,44.1,25.1,29.91,NNW,338,1.6,1.6,47,0.00,,,0.00,VWS V14.01,2013-04-04 12:37:00,
2013-04-04 08:43:00,43.7,24.8,29.91,NNE,22,2.0,2.9,47,0.00,,,0.00,VWS V14.01,2013-04-04 12:43:00,
2013-04-04 08:48:00,43.5,24.1,29.91,NNW,338,3.8,3.8,46,0.00,,,0.00,VWS V14.01,2013-04-04 12:48:00,
2013-04-04 08:53:00,44.1,24.6,29.91,NE,45,2.0,2.7,46,0.00,,,0.00,VWS V14.01,2013-04-04 12:53:00,
2013-04-04 08:58:00,45.3,25.8,29.91,NNW,338,2.2,2.2,46,0.00,,,0.00,VWS V14.01,2013-04-04 12:58:00,
2013-04-04 09:03:00,45.5,25.4,29.91,NE,45,2.9,3.1,45,0.00,,,0.00,VWS V14.01,2013-04-04 13:03:00,
2013-04-04 09:08:00,45.3,25.2,29.91,North,0,2.7,3.6,45,0.00,,,0.00,VWS V14.01,2013-04-04 13:08:00,
2013-04-04 09:14:00,45.1,25.1,29.91,NW,315,4.3,4.3,45,0.00,,,0.00,VWS V14.01,2013-04-04 13:14:00,
2013-04-04 09:19:00,45.1,25.1,29.91,WNW,292,6.0,6.0,45,0.00,,,0.00,VWS V14.01,2013-04-04 13:19:00,
2013-04-04 09:24:00,44.8,24.8,29.91,NNW,338,1.1,5.6,45,0.00,,,0.00,VWS V14.01,2013-04-04 13:24:00,
2013-04-04 09:30:00,45.1,24.5,29.91,NW,315,2.2,2.9,44,0.00,,,0.00,VWS V14.01,2013-04-04 13:30:00,
2013-04-04 09:35:00,45.5,24.9,29.91,NE,45,2.9,2.9,44,0.00,,,0.00,VWS V14.01,2013-04-04 13:35:00,
2013-04-04 09:40:00,45.9,25.2,29.91,NNW,338,1.6,3.6,44,0.00,,,0.00,VWS V14.01,2013-04-04 13:40:00,
2013-04-04 09:45:00,46.2,25.5,29.91,SSE,158,2.2,2.2,44,0.00,,,0.00,VWS V14.01,2013-04-04 13:45:00,
2013-04-04 09:50:00,46.0,25.4,29.91,NW,315,1.3,1.3,44,0.00,,,0.00,VWS V14.01,2013-04-04 13:50:00,
2013-04-04 09:55:00,46.2,25.5,29.91,North,0,4.9,4.9,44,0.00,,,0.00,VWS V14.01,2013-04-04 13:55:00,
2013-04-04 10:01:00,46.4,25.7,29.91,NW,315,1.6,2.5,44,0.00,,,0.00,VWS V14.01,2013-04-04 14:01:00,
2013-04-04 10:06:00,46.2,25.5,29.91,NNW,338,1.6,5.6,44,0.00,,,0.00,VWS V14.01,2013-04-04 14:06:00,
2013-04-04 10:11:00,46.9,25.6,29.91,WNW,292,3.8,3.8,43,0.00,,,0.00,VWS V14.01,2013-04-04 14:11:00,
2013-04-04 10:16:00,48.0,26.6,29.91,North,0,0.0,1.6,43,0.00,,,0.00,VWS V14.01,2013-04-04 14:16:00,
2013-04-04 10:22:00,49.3,27.2,29.91,North,0,2.7,2.7,42,0.00,,,0.00,VWS V14.01,2013-04-04 14:22:00,
2013-04-04 10:27:00,48.4,26.4,29.91,East,90,3.4,3.8,42,0.00,,,0.00,VWS V14.01,2013-04-04 14:27:00,
2013-04-04 10:32:00,48.2,26.2,29.91,NNE,22,3.4,3.4,42,0.00,,,0.00,VWS V14.01,2013-04-04 14:32:00,
2013-04-04 10:37:00,48.2,26.2,29.91,NW,315,5.6,5.6,42,0.00,,,0.00,VWS V14.01,2013-04-04 14:37:00,
2013-04-04 10:42:00,48.4,26.4,29.88,West,270,4.3,4.3,42,0.00,,,0.00,VWS V14.01,2013-04-04 14:42:00,
2013-04-04 10:47:00,48.6,26.5,29.88,NW,315,3.4,3.4,42,0.00,,,0.00,VWS V14.01,2013-04-04 14:47:00,
2013-04-04 10:52:00,48.9,26.9,29.88,SE,135,3.1,3.1,42,0.00,,,0.00,VWS V14.01,2013-04-04 14:52:00,
2013-04-04 10:57:00,48.9,26.9,29.88,WNW,292,3.6,3.6,42,0.00,,,0.00,VWS V14.01,2013-04-04 14:57:00,
2013-04-04 11:03:00,49.5,27.3,29.88,NNW,338,2.5,2.9,42,0.00,,,0.00,VWS V14.01,2013-04-04 15:03:00,
2013-04-04 11:08:00,49.5,26.8,29.88,NNE,22,4.0,4.0,41,0.00,,,0.00,VWS V14.01,2013-04-04 15:08:00,
2013-04-04 11:13:00,51.3,28.4,29.88,NW,315,2.0,2.0,41,0.00,,,0.00,VWS V14.01,2013-04-04 15:13:00,
2013-04-04 11:18:00,51.4,28.5,29.88,North,0,1.6,1.6,41,0.00,,,0.00,VWS V14.01,2013-04-04 15:18:00,
2013-04-04 11:23:00,50.4,27.6,29.85,North,0,2.5,2.5,41,0.00,,,0.00,VWS V14.01,2013-04-04 15:23:00,
2013-04-04 11:29:00,50.2,27.4,29.85,SSE,158,3.4,3.4,41,0.00,,,0.00,VWS V14.01,2013-04-04 15:29:00,
2013-04-04 11:34:00,49.5,26.8,29.85,NW,315,2.9,2.9,41,0.00,,,0.00,VWS V14.01,2013-04-04 15:34:00,
2013-04-04 11:39:00,49.5,26.8,29.85,NW,315,4.3,4.3,41,0.00,,,0.00,VWS V14.01,2013-04-04 15:39:00,
2013-04-04 11:45:00,49.8,27.1,29.85,NNW,338,1.1,1.1,41,0.00,,,0.00,VWS V14.01,2013-04-04 15:45:00,
2013-04-04 11:50:00,49.5,26.8,29.85,WNW,292,2.9,2.9,41,0.00,,,0.00,VWS V14.01,2013-04-04 15:50:00,
2013-04-04 11:56:00,49.6,27.5,29.85,NW,315,1.3,3.4,42,0.00,,,0.00,VWS V14.01,2013-04-04 15:56:00,
2013-04-04 12:02:00,49.8,27.7,29.85,North,0,1.1,1.1,42,0.00,,,0.00,VWS V14.01,2013-04-04 16:02:00,
2013-04-04 12:07:00,50.0,27.8,29.85,NNE,22,2.9,2.9,42,0.00,,,0.00,VWS V14.01,2013-04-04 16:07:00,
2013-04-04 12:12:00,49.8,28.2,29.85,SE,135,2.9,2.9,43,0.00,,,0.00,VWS V14.01,2013-04-04 16:12:00,
2013-04-04 12:17:00,49.8,28.2,29.85,NW,315,2.2,2.2,43,0.00,,,0.00,VWS V14.01,2013-04-04 16:17:00,
2013-04-04 12:22:00,50.0,28.4,29.85,WNW,292,2.9,2.9,43,0.00,,,0.00,VWS V14.01,2013-04-04 16:22:00,
2013-04-04 12:28:00,50.0,28.4,29.82,West,270,2.7,3.4,43,0.00,,,0.00,VWS V14.01,2013-04-04 16:28:00,
2013-04-04 12:33:00,50.4,28.7,29.82,NW,315,7.6,7.6,43,0.00,,,0.00,VWS V14.01,2013-04-04 16:33:00,
2013-04-04 12:38:00,50.4,28.7,29.82,West,270,2.2,2.2,43,0.00,,,0.00,VWS V14.01,2013-04-04 16:38:00,
2013-04-04 12:43:00,50.7,29.1,29.82,East,90,2.0,2.5,43,0.00,,,0.00,VWS V14.01,2013-04-04 16:43:00,
2013-04-04 12:48:00,50.7,29.1,29.82,NW,315,2.9,2.9,43,0.00,,,0.00,VWS V14.01,2013-04-04 16:48:00,
2013-04-04 12:53:00,50.5,28.9,29.82,SSW,202,4.3,4.3,43,0.00,,,0.00,VWS V14.01,2013-04-04 16:53:00,
2013-04-04 12:58:00,51.3,29.5,29.82,NNW,338,1.6,1.6,43,0.00,,,0.00,VWS V14.01,2013-04-04 16:58:00,
2013-04-04 13:03:00,51.3,29.5,29.82,North,0,2.7,2.7,43,0.00,,,0.00,VWS V14.01,2013-04-04 17:03:00,
2013-04-04 13:09:00,51.3,29.5,29.79,East,90,1.3,2.9,43,0.00,,,0.00,VWS V14.01,2013-04-04 17:09:00,
2013-04-04 13:14:00,50.5,28.9,29.79,North,0,3.4,3.4,43,0.00,,,0.00,VWS V14.01,2013-04-04 17:14:00,
2013-04-04 13:19:00,50.4,28.7,29.79,NW,315,2.2,2.2,43,0.00,,,0.00,VWS V14.01,2013-04-04 17:19:00,
2013-04-04 13:24:00,50.0,29.0,29.79,NNE,22,2.0,2.0,44,0.00,,,0.00,VWS V14.01,2013-04-04 17:24:00,
2013-04-04 13:30:00,50.0,29.5,29.79,NNE,22,1.1,1.3,45,0.00,,,0.00,VWS V14.01,2013-04-04 17:30:00,
2013-04-04 13:35:00,49.8,29.9,29.79,North,0,3.1,5.6,46,0.00,,,0.00,VWS V14.01,2013-04-04 17:35:00,
2013-04-04 13:40:00,49.6,29.7,29.79,WNW,292,3.6,3.6,46,0.00,,,0.00,VWS V14.01,2013-04-04 17:40:00,
2013-04-04 13:45:00,49.5,30.1,29.79,NNW,338,1.3,1.6,47,0.00,,,0.00,VWS V14.01,2013-04-04 17:45:00,
2013-04-04 13:50:00,49.3,29.9,29.79,NE,45,1.6,1.6,47,0.00,,,0.00,VWS V14.01,2013-04-04 17:50:00,
2013-04-04 13:55:00,49.1,29.8,29.76,NNW,338,2.7,2.7,47,0.00,,,0.00,VWS V14.01,2013-04-04 17:55:00,
2013-04-04 14:00:00,49.1,30.8,29.76,ESE,112,2.0,2.0,49,0.00,,,0.00,VWS V14.01,2013-04-04 18:00:00,
2013-04-04 14:06:00,48.7,30.5,29.76,East,90,0.0,0.0,49,0.00,,,0.00,VWS V14.01,2013-04-04 18:06:00,
2013-04-04 14:11:00,48.7,31.0,29.79,SE,135,2.0,2.0,50,0.00,,,0.00,VWS V14.01,2013-04-04 18:11:00,
2013-04-04 14:16:00,48.7,31.4,29.79,SSW,202,0.0,0.0,51,0.00,,,0.00,VWS V14.01,2013-04-04 18:16:00,
2013-04-04 14:22:00,48.7,31.9,29.79,NW,315,0.0,0.0,52,0.00,,,0.00,VWS V14.01,2013-04-04 18:22:00,
2013-04-04 14:27:00,48.7,31.9,29.79,NW,315,0.0,0.0,52,0.00,,,0.00,VWS V14.01,2013-04-04 18:27:00,
2013-04-04 14:32:00,48.6,32.2,29.79,NW,315,0.0,0.0,53,0.00,,,0.00,VWS V14.01,2013-04-04 18:32:00,
2013-04-04 14:37:00,48.6,32.7,29.79,WNW,292,0.0,0.0,54,0.00,,,0.00,VWS V14.01,2013-04-04 18:37:00,
2013-04-04 14:42:00,48.6,33.1,29.76,NW,315,0.9,0.9,55,0.04,,,0.04,VWS V14.01,2013-04-04 18:42:00,
2013-04-04 14:47:00,48.2,33.3,29.76,NE,45,0.0,0.0,56,0.04,,,0.04,VWS V14.01,2013-04-04 18:47:00,
2013-04-04 14:52:00,48.2,33.7,29.76,NW,315,0.0,0.0,57,0.04,,,0.04,VWS V14.01,2013-04-04 18:52:00,
2013-04-04 14:58:00,48.2,34.1,29.79,WSW,248,0.0,0.0,58,0.04,,,0.04,VWS V14.01,2013-04-04 18:58:00,
2013-04-04 15:03:00,48.2,33.7,29.79,West,270,0.0,0.0,57,0.04,,,0.04,VWS V14.01,2013-04-04 19:03:00,
2013-04-04 15:08:00,48.2,33.7,29.79,WNW,292,0.0,0.0,57,0.04,,,0.04,VWS V14.01,2013-04-04 19:08:00,
2013-04-04 15:13:00,48.0,34.0,29.76,North,0,1.3,1.3,58,0.04,,,0.04,VWS V14.01,2013-04-04 19:13:00,
2013-04-04 15:18:00,48.0,34.0,29.76,NW,315,0.0,0.0,58,0.04,,,0.04,VWS V14.01,2013-04-04 19:18:00,
2013-04-04 15:23:00,47.7,33.6,29.76,WNW,292,2.2,2.5,58,0.04,,,0.04,VWS V14.01,2013-04-04 19:23:00,
2013-04-04 15:28:00,47.7,33.6,29.74,WSW,248,1.6,1.6,58,0.04,,,0.04,VWS V14.01,2013-04-04 19:28:00,
2013-04-04 15:33:00,47.1,33.1,29.74,NW,315,0.9,1.6,58,0.04,,,0.04,VWS V14.01,2013-04-04 19:33:00,
2013-04-04 15:39:00,46.9,33.4,29.74,NW,315,0.0,0.0,59,0.04,,,0.04,VWS V14.01,2013-04-04 19:39:00,
2013-04-04 15:44:00,46.8,33.2,29.74,WNW,292,1.6,1.6,59,0.00,,,0.04,VWS V14.01,2013-04-04 19:44:00,
2013-04-04 15:49:00,46.8,33.2,29.74,WNW,292,3.6,3.6,59,0.00,,,0.04,VWS V14.01,2013-04-04 19:49:00,
2013-04-04 15:54:00,46.4,32.9,29.74,SSE,158,1.1,1.6,59,0.00,,,0.04,VWS V14.01,2013-04-04 19:54:00,
2013-04-04 15:59:00,46.0,33.0,29.74,NNW,338,1.6,3.1,60,0.00,,,0.04,VWS V14.01,2013-04-04 19:59:00,
2013-04-04 16:04:00,46.2,33.1,29.74,West,270,2.0,2.0,60,0.00,,,0.04,VWS V14.01,2013-04-04 20:04:00,
2013-04-04 16:09:00,45.9,32.8,29.74,NNW,338,2.2,2.2,60,0.00,,,0.04,VWS V14.01,2013-04-04 20:09:00,
2013-04-04 16:15:00,45.7,33.0,29.74,West,270,2.0,2.9,61,0.00,,,0.04,VWS V14.01,2013-04-04 20:15:00,
2013-04-04 16:20:00,45.9,33.2,29.74,NNW,338,0.0,0.0,61,0.00,,,0.04,VWS V14.01,2013-04-04 20:20:00,
2013-04-04 16:25:00,45.5,32.8,29.74,North,0,3.6,3.6,61,0.04,,,0.08,VWS V14.01,2013-04-04 20:25:00,
2013-04-04 16:30:00,45.1,32.9,29.74,SSW,202,1.1,3.1,62,0.04,,,0.08,VWS V14.01,2013-04-04 20:30:00,
2013-04-04 16:35:00,45.1,32.5,29.74,NW,315,1.3,5.6,61,0.04,,,0.08,VWS V14.01,2013-04-04 20:35:00,
2013-04-04 16:40:00,45.0,32.7,29.71,WNW,292,1.1,2.5,62,0.04,,,0.08,VWS V14.01,2013-04-04 20:40:00,
2013-04-04 16:46:00,44.6,32.4,29.71,WSW,248,1.6,1.6,62,0.04,,,0.08,VWS V14.01,2013-04-04 20:46:00,
2013-04-04 16:51:00,45.0,33.1,29.71,North,0,1.3,1.3,63,0.04,,,0.08,VWS V14.01,2013-04-04 20:51:00,
2013-04-04 16:56:00,44.8,33.0,29.71,NW,315,2.5,2.5,63,0.04,,,0.08,VWS V14.01,2013-04-04 20:56:00,
2013-04-04 17:01:00,44.8,33.0,29.71,SW,225,4.0,4.0,63,0.04,,,0.08,VWS V14.01,2013-04-04 21:01:00,
2013-04-04 17:06:00,45.0,33.5,29.71,WSW,248,3.1,3.1,64,0.04,,,0.08,VWS V14.01,2013-04-04 21:06:00,
2013-04-04 17:12:00,44.8,33.4,29.71,WNW,292,2.5,4.5,64,0.04,,,0.08,VWS V14.01,2013-04-04 21:12:00,
2013-04-04 17:17:00,44.6,33.2,29.71,NNW,338,4.3,4.3,64,0.04,,,0.08,VWS V14.01,2013-04-04 21:17:00,
2013-04-04 17:22:00,44.2,33.2,29.71,North,0,2.9,2.9,65,0.04,,,0.08,VWS V14.01,2013-04-04 21:22:00,
2013-04-04 17:27:00,44.1,32.7,29.68,South,180,1.6,2.9,64,0.00,,,0.08,VWS V14.01,2013-04-04 21:27:00,
2013-04-04 17:32:00,44.4,33.4,29.68,WNW,292,2.7,2.7,65,0.00,,,0.08,VWS V14.01,2013-04-04 21:32:00,
2013-04-04 17:37:00,44.1,33.1,29.68,North,0,2.7,2.7,65,0.00,,,0.08,VWS V14.01,2013-04-04 21:37:00,
2013-04-04 17:43:00,43.9,32.9,29.68,WNW,292,3.6,3.6,65,0.00,,,0.08,VWS V14.01,2013-04-04 21:43:00,
2013-04-04 17:48:00,43.5,32.5,29.68,NW,315,4.0,4.0,65,0.00,,,0.08,VWS V14.01,2013-04-04 21:48:00,
2013-04-04 17:53:00,43.5,32.5,29.68,SW,225,2.7,3.4,65,0.00,,,0.08,VWS V14.01,2013-04-04 21:53:00,
2013-04-04 17:58:00,43.3,32.8,29.68,WSW,248,3.6,3.6,66,0.04,,,0.12,VWS V14.01,2013-04-04 21:58:00,
2013-04-04 18:04:00,43.0,32.4,29.68,WSW,248,2.7,2.7,66,0.04,,,0.12,VWS V14.01,2013-04-04 22:04:00,
2013-04-04 18:09:00,43.0,32.8,29.68,North,0,0.0,2.0,67,0.04,,,0.12,VWS V14.01,2013-04-04 22:09:00,
2013-04-04 18:14:00,43.2,33.0,29.68,SW,225,0.9,0.9,67,0.04,,,0.12,VWS V14.01,2013-04-04 22:14:00,
2013-04-04 18:20:00,43.3,33.5,29.68,WSW,248,2.7,2.7,68,0.04,,,0.12,VWS V14.01,2013-04-04 22:20:00,
2013-04-04 18:25:00,43.0,32.8,29.68,North,0,3.4,3.4,67,0.04,,,0.12,VWS V14.01,2013-04-04 22:25:00,
2013-04-04 18:30:00,42.6,32.4,29.68,North,0,1.3,2.9,67,0.04,,,0.12,VWS V14.01,2013-04-04 22:30:00,
2013-04-04 18:35:00,42.8,33.0,29.68,NNW,338,2.2,2.2,68,0.04,,,0.12,VWS V14.01,2013-04-04 22:35:00,
2013-04-04 18:40:00,42.4,32.6,29.65,NNW,338,4.0,4.0,68,0.04,,,0.12,VWS V14.01,2013-04-04 22:40:00,
2013-04-04 18:45:00,42.4,32.6,29.65,WNW,292,3.4,3.6,68,0.04,,,0.12,VWS V14.01,2013-04-04 22:45:00,
2013-04-04 18:50:00,42.4,32.6,29.65,NE,45,3.6,3.6,68,0.04,,,0.12,VWS V14.01,2013-04-04 22:50:00,
2013-04-04 18:56:00,42.3,32.5,29.65,NW,315,1.6,4.0,68,0.04,,,0.12,VWS V14.01,2013-04-04 22:56:00,
2013-04-04 19:01:00,42.4,33.0,29.65,SW,225,1.3,4.3,69,0.00,,,0.12,VWS V14.01,2013-04-04 23:01:00,
2013-04-04 19:06:00,42.6,33.2,29.65,NW,315,5.4,5.4,69,0.00,,,0.12,VWS V14.01,2013-04-04 23:06:00,
2013-04-04 19:11:00,42.1,32.7,29.65,NNW,338,2.2,2.5,69,0.00,,,0.12,VWS V14.01,2013-04-04 23:11:00,
2013-04-04 19:16:00,41.9,32.5,29.65,NW,315,9.8,9.8,69,0.00,,,0.12,VWS V14.01,2013-04-04 23:16:00,
2013-04-04 19:22:00,41.9,32.5,29.65,SW,225,3.4,3.6,69,0.00,,,0.12,VWS V14.01,2013-04-04 23:22:00,
2013-04-04 19:27:00,41.7,32.0,29.59,West,270,2.5,7.6,68,0.00,,,0.12,VWS V14.01,2013-04-04 23:27:00,
2013-04-04 19:32:00,41.9,32.5,29.59,West,270,3.1,5.4,69,0.00,,,0.12,VWS V14.01,2013-04-04 23:32:00,
2013-04-04 19:37:00,41.9,32.5,29.59,SW,225,2.9,2.9,69,0.00,,,0.12,VWS V14.01,2013-04-04 23:37:00,
2013-04-04 19:42:00,41.9,32.5,29.59,NNW,338,3.8,3.8,69,0.00,,,0.12,VWS V14.01,2013-04-04 23:42:00,
2013-04-04 19:48:00,42.1,33.0,29.59,SSW,202,4.3,4.3,70,0.00,,,0.12,VWS V14.01,2013-04-04 23:48:00,
2013-04-04 19:53:00,41.9,32.8,29.59,NW,315,2.7,2.7,70,0.00,,,0.12,VWS V14.01,2013-04-04 23:53:00,
2013-04-04 19:58:00,41.9,32.8,29.59,WSW,248,5.8,5.8,70,0.00,,,0.12,VWS V14.01,2013-04-04 23:58:00,
2013-04-04 20:04:00,42.1,33.4,29.59,NW,315,2.2,2.2,71,0.00,,,0.12,VWS V14.01,2013-04-05 00:04:00,
2013-04-04 20:09:00,42.1,33.4,29.62,NNW,338,3.1,3.1,71,0.00,,,0.12,VWS V14.01,2013-04-05 00:09:00,
2013-04-04 20:14:00,41.9,32.8,29.62,West,270,2.7,3.4,70,0.00,,,0.12,VWS V14.01,2013-04-05 00:14:00,
2013-04-04 20:19:00,41.7,32.7,29.62,North,0,3.4,3.4,70,0.00,,,0.12,VWS V14.01,2013-04-05 00:19:00,
2013-04-04 20:24:00,41.7,33.0,29.59,North,0,4.9,4.9,71,0.00,,,0.12,VWS V14.01,2013-04-05 00:24:00,
2013-04-04 20:29:00,41.7,33.0,29.59,WNW,292,3.4,3.4,71,0.00,,,0.12,VWS V14.01,2013-04-05 00:29:00,
2013-04-04 20:34:00,41.7,33.0,29.59,West,270,3.4,3.4,71,0.00,,,0.12,VWS V14.01,2013-04-05 00:34:00,
2013-04-04 20:40:00,41.9,33.5,29.59,WNW,292,0.0,0.0,72,0.00,,,0.12,VWS V14.01,2013-04-05 00:40:00,
2013-04-04 20:45:00,41.7,33.0,29.59,NNW,338,0.9,3.6,71,0.00,,,0.12,VWS V14.01,2013-04-05 00:45:00,
2013-04-04 20:50:00,41.7,33.0,29.59,North,0,4.0,4.0,71,0.00,,,0.12,VWS V14.01,2013-04-05 00:50:00,
2013-04-04 20:55:00,41.7,33.4,29.59,West,270,3.8,3.8,72,0.00,,,0.12,VWS V14.01,2013-04-05 00:55:00,
2013-04-04 21:00:00,41.7,33.4,29.59,WNW,292,3.6,3.6,72,0.00,,,0.12,VWS V14.01,2013-04-05 01:00:00,
2013-04-04 21:05:00,41.7,33.4,29.59,SW,225,2.0,3.8,72,0.00,,,0.12,VWS V14.01,2013-04-05 01:05:00,
2013-04-04 21:10:00,42.1,33.7,29.59,NNW,338,2.9,4.0,72,0.00,,,0.12,VWS V14.01,2013-04-05 01:10:00,
2013-04-04 21:15:00,41.9,33.5,29.59,North,0,2.7,2.7,72,0.00,,,0.12,VWS V14.01,2013-04-05 01:15:00,
2013-04-04 21:20:00,42.1,33.7,29.59,WNW,292,1.6,1.6,72,0.00,,,0.12,VWS V14.01,2013-04-05 01:20:00,
2013-04-04 21:25:00,41.9,33.5,29.59,NNW,338,2.9,2.9,72,0.00,,,0.12,VWS V14.01,2013-04-05 01:25:00,
2013-04-04 21:30:00,41.9,33.5,29.59,SW,225,1.3,1.3,72,0.00,,,0.12,VWS V14.01,2013-04-05 01:30:00,
2013-04-04 21:35:00,42.1,34.1,29.59,NW,315,0.0,0.0,73,0.00,,,0.12,VWS V14.01,2013-04-05 01:35:00,
2013-04-04 21:41:00,42.1,34.1,29.59,SW,225,1.3,1.3,73,0.00,,,0.12,VWS V14.01,2013-04-05 01:41:00,
2013-04-04 21:46:00,41.9,33.9,29.59,WSW,248,3.1,5.6,73,0.00,,,0.12,VWS V14.01,2013-04-05 01:46:00,
2013-04-04 21:51:00,41.9,33.5,29.59,NW,315,2.9,2.9,72,0.00,,,0.12,VWS V14.01,2013-04-05 01:51:00,
2013-04-04 21:56:00,41.7,33.4,29.56,North,0,3.1,5.6,72,0.00,,,0.12,VWS V14.01,2013-04-05 01:56:00,
2013-04-04 22:02:00,41.9,33.9,29.56,West,270,3.1,3.8,73,0.00,,,0.12,VWS V14.01,2013-04-05 02:02:00,
2013-04-04 22:07:00,41.7,33.7,29.56,WSW,248,5.8,5.8,73,0.00,,,0.12,VWS V14.01,2013-04-05 02:07:00,
2013-04-04 22:12:00,41.7,33.4,29.53,NNW,338,3.8,3.8,72,0.00,,,0.12,VWS V14.01,2013-04-05 02:12:00,
2013-04-04 22:17:00,41.7,33.7,29.53,WNW,292,3.8,3.8,73,0.00,,,0.12,VWS V14.01,2013-04-05 02:17:00,
2013-04-04 22:22:00,41.5,33.5,29.53,NW,315,1.6,1.6,73,0.00,,,0.12,VWS V14.01,2013-04-05 02:22:00,
2013-04-04 22:27:00,41.5,33.5,29.53,North,0,5.4,5.4,73,0.00,,,0.12,VWS V14.01,2013-04-05 02:27:00,
2013-04-04 22:32:00,41.5,33.5,29.53,NNW,338,2.5,2.5,73,0.00,,,0.12,VWS V14.01,2013-04-05 02:32:00,
2013-04-04 22:38:00,41.4,33.4,29.53,NW,315,3.4,3.4,73,0.00,,,0.12,VWS V14.01,2013-04-05 02:38:00,
2013-04-04 22:43:00,41.4,33.4,29.53,NNE,22,2.0,5.4,73,0.00,,,0.12,VWS V14.01,2013-04-05 02:43:00,
2013-04-04 22:48:00,41.5,33.9,29.53,NW,315,2.2,2.5,74,0.00,,,0.12,VWS V14.01,2013-04-05 02:48:00,
2013-04-04 22:53:00,41.5,33.9,29.53,NW,315,2.9,2.9,74,0.00,,,0.12,VWS V14.01,2013-04-05 02:53:00,
2013-04-04 22:58:00,41.5,33.9,29.53,NW,315,2.7,3.1,74,0.00,,,0.12,VWS V14.01,2013-04-05 02:58:00,
2013-04-04 23:03:00,41.5,33.5,29.53,NW,315,4.3,5.4,73,0.00,,,0.12,VWS V14.01,2013-04-05 03:03:00,
2013-04-04 23:08:00,41.7,34.1,29.53,NNE,22,2.9,2.9,74,0.00,,,0.12,VWS V14.01,2013-04-05 03:08:00,
2013-04-04 23:13:00,41.7,34.1,29.50,WSW,248,1.1,1.1,74,0.00,,,0.12,VWS V14.01,2013-04-05 03:13:00,
2013-04-04 23:18:00,41.9,34.6,29.50,SSW,202,0.0,0.0,75,0.00,,,0.12,VWS V14.01,2013-04-05 03:18:00,
2013-04-04 23:23:00,41.9,34.2,29.50,NNW,338,2.9,2.9,74,0.00,,,0.12,VWS V14.01,2013-04-05 03:23:00,
2013-04-04 23:28:00,42.1,34.7,29.53,WNW,292,1.1,2.2,75,0.00,,,0.12,VWS V14.01,2013-04-05 03:28:00,
2013-04-04 23:33:00,41.9,34.6,29.53,WSW,248,2.0,2.0,75,0.00,,,0.12,VWS V14.01,2013-04-05 03:33:00,
2013-04-04 23:39:00,42.1,34.7,29.53,WNW,292,0.0,0.0,75,0.00,,,0.12,VWS V14.01,2013-04-05 03:39:00,
2013-04-04 23:44:00,41.9,34.2,29.53,West,270,2.7,3.4,74,0.00,,,0.12,VWS V14.01,2013-04-05 03:44:00,
2013-04-04 23:49:00,41.9,34.2,29.50,North,0,2.5,2.5,74,0.00,,,0.12,VWS V14.01,2013-04-05 03:49:00,
2013-04-04 23:54:00,41.9,34.2,29.50,WSW,248,3.8,3.8,74,0.00,,,0.12,VWS V14.01,2013-04-05 03:54:00,
2013-04-04 23:59:00,41.9,34.6,29.50,NW,315,2.7,2.7,75,0.00,,,0.12,VWS V14.01,2013-04-05 03:59:00,